createdAt,value
2022-11-28T00:01:13.619Z,3.10
2022-11-28T00:04:12.554Z,3.10
2022-11-28T00:07:11.988Z,3.10
2022-11-28T00:10:10.855Z,3.10
2022-11-28T00:13:07.859Z,3.10
2022-11-28T00:16:07.994Z,3.00
2022-11-28T00:19:07.221Z,3.00
2022-11-28T00:22:04.193Z,3.00
2022-11-28T00:25:01.059Z,3.00
2022-11-28T00:27:57.942Z,3.10
2022-11-28T00:30:54.878Z,3.10
2022-11-28T00:33:52.083Z,3.10
2022-11-28T00:36:49.110Z,3.00
2022-11-28T00:39:46.023Z,3.20
2022-11-28T00:42:42.912Z,3.10
2022-11-28T00:45:39.888Z,3.10
2022-11-28T00:48:37.378Z,3.10
2022-11-28T00:51:35.239Z,3.10
2022-11-28T00:54:32.308Z,3.20
2022-11-28T00:57:29.249Z,3.10
2022-11-28T01:00:26.123Z,3.10
2022-11-28T01:03:23.008Z,3.10
2022-11-28T01:06:33.276Z,3.10
2022-11-28T01:09:30.149Z,3.10
2022-11-28T01:12:27.032Z,3.10
2022-11-28T01:15:24.181Z,3.10
2022-11-28T01:18:21.269Z,3.10
2022-11-28T01:21:19.660Z,3.10
2022-11-28T01:24:17.759Z,3.20
2022-11-28T01:27:14.664Z,3.20
2022-11-28T01:30:11.728Z,3.20
2022-11-28T01:33:08.656Z,3.30
2022-11-28T01:36:06.034Z,3.30
2022-11-28T01:39:03.653Z,3.40
2022-11-28T01:42:00.994Z,3.50
2022-11-28T01:45:16.629Z,3.50
2022-11-28T01:48:22.750Z,3.50
2022-11-28T01:51:20.377Z,3.40
2022-11-28T01:54:20.669Z,3.40
2022-11-28T01:57:22.357Z,3.40
2022-11-28T02:00:21.880Z,3.30
2022-11-28T02:03:29.832Z,3.30
2022-11-28T02:06:27.516Z,3.20
2022-11-28T02:09:24.463Z,3.20
2022-11-28T02:12:50.568Z,3.20
2022-11-28T02:16:28.510Z,3.30
2022-11-28T02:20:05.460Z,3.20
2022-11-28T02:23:30.279Z,3.20
2022-11-28T02:27:30.620Z,3.20
2022-11-28T02:30:57.703Z,3.10
2022-11-28T02:34:10.085Z,3.20
2022-11-28T02:37:42.534Z,3.40
2022-11-28T02:41:10.460Z,3.40
2022-11-28T02:44:43.111Z,3.40
2022-11-28T02:47:56.128Z,3.40
2022-11-28T02:51:09.406Z,3.40
2022-11-28T02:54:11.241Z,3.40
2022-11-28T02:57:08.937Z,3.30
2022-11-28T03:00:23.978Z,3.20
2022-11-28T03:04:00.638Z,3.30
2022-11-28T03:07:23.425Z,3.20
2022-11-28T03:10:50.457Z,3.20
2022-11-28T03:14:52.144Z,3.10
2022-11-28T03:18:03.098Z,3.20
2022-11-28T03:21:50.069Z,3.10
2022-11-28T03:25:24.049Z,3.10
2022-11-28T03:28:40.586Z,3.10
2022-11-28T03:31:52.188Z,3.20
2022-11-28T03:34:55.988Z,3.10
2022-11-28T03:38:00.916Z,3.00
2022-11-28T03:41:07.672Z,2.90
2022-11-28T03:44:11.628Z,3.00
2022-11-28T03:47:09.717Z,3.10
2022-11-28T03:50:19.598Z,3.00
2022-11-28T03:53:35.004Z,3.00
2022-11-28T03:57:02.972Z,3.00
2022-11-28T04:00:08.130Z,2.90
2022-11-28T04:03:09.761Z,2.80
2022-11-28T04:06:27.929Z,2.90
2022-11-28T04:09:57.249Z,3.00
2022-11-28T04:13:18.858Z,3.10
2022-11-28T04:16:30.750Z,3.00
2022-11-28T04:19:35.928Z,3.00
2022-11-28T04:22:41.855Z,3.00
2022-11-28T04:25:44.843Z,3.10
2022-11-28T04:28:44.010Z,3.10
2022-11-28T04:31:44.783Z,3.10
2022-11-28T04:34:45.690Z,3.10
2022-11-28T04:37:48.806Z,3.10
2022-11-28T04:41:21.203Z,3.10
2022-11-28T04:44:34.524Z,3.00
2022-11-28T04:47:31.475Z,3.00
2022-11-28T04:50:59.690Z,3.00
2022-11-28T04:54:33.503Z,3.10
2022-11-28T04:57:41.502Z,3.00
2022-11-28T05:00:39.359Z,3.10
2022-11-28T05:03:42.298Z,3.10
2022-11-28T05:06:39.576Z,3.00
2022-11-28T05:09:36.965Z,3.00
2022-11-28T05:12:33.924Z,3.00
2022-11-28T05:15:30.843Z,3.00
2022-11-28T05:18:27.704Z,2.90
2022-11-28T05:21:24.690Z,2.90
2022-11-28T05:24:22.556Z,2.90
2022-11-28T05:27:19.539Z,2.90
2022-11-28T05:30:16.610Z,2.90
2022-11-28T05:33:13.481Z,2.90
2022-11-28T05:36:13.993Z,3.00
2022-11-28T05:39:10.826Z,3.00
2022-11-28T05:42:07.762Z,2.90
2022-11-28T05:45:05.513Z,2.90
2022-11-28T05:48:02.367Z,2.90
2022-11-28T05:50:59.202Z,2.90
2022-11-28T05:53:56.090Z,2.90
2022-11-28T05:56:52.995Z,3.00
2022-11-28T05:59:49.822Z,2.90
2022-11-28T06:02:46.671Z,2.90
2022-11-28T06:05:44.474Z,2.80
2022-11-28T06:08:42.582Z,2.90
2022-11-28T06:11:39.430Z,2.90
2022-11-28T06:14:37.462Z,2.80
2022-11-28T06:17:34.348Z,2.90
2022-11-28T06:20:31.212Z,2.90
2022-11-28T06:23:28.291Z,2.90
2022-11-28T06:26:26.932Z,2.90
2022-11-28T06:29:23.815Z,2.90
2022-11-28T06:32:22.272Z,3.00
2022-11-28T06:35:19.324Z,3.20
2022-11-28T06:38:16.176Z,3.30
2022-11-28T06:41:17.246Z,3.30
2022-11-28T06:44:16.122Z,3.30
2022-11-28T06:47:12.977Z,3.20
2022-11-28T06:50:10.638Z,3.20
2022-11-28T06:53:07.479Z,3.20
2022-11-28T06:56:11.394Z,3.20
2022-11-28T06:59:11.377Z,3.30
2022-11-28T07:02:10.163Z,3.30
2022-11-28T07:05:08.749Z,3.30
2022-11-28T07:08:06.508Z,3.30
2022-11-28T07:11:22.332Z,3.30
2022-11-28T07:14:19.419Z,3.30
2022-11-28T07:17:16.368Z,3.30
2022-11-28T07:20:13.959Z,3.30
2022-11-28T07:23:10.790Z,3.30
2022-11-28T07:26:08.205Z,3.30
2022-11-28T07:29:07.025Z,3.30
2022-11-28T07:32:06.308Z,3.30
2022-11-28T07:35:04.551Z,3.30
2022-11-28T07:38:01.429Z,3.30
2022-11-28T07:41:13.568Z,3.40
2022-11-28T07:44:11.651Z,3.40
2022-11-28T07:47:08.644Z,3.40
2022-11-28T07:50:06.550Z,3.40
2022-11-28T07:53:07.163Z,3.50
2022-11-28T07:56:07.315Z,3.50
2022-11-28T07:59:05.204Z,3.50
2022-11-28T08:02:02.659Z,3.60
2022-11-28T08:05:00.017Z,3.60
2022-11-28T08:07:56.966Z,3.60
2022-11-28T08:11:02.900Z,3.60
2022-11-28T08:14:00.369Z,3.60
2022-11-28T08:16:57.253Z,3.70
2022-11-28T08:19:54.140Z,3.70
2022-11-28T08:22:51.107Z,3.70
2022-11-28T08:25:47.956Z,3.80
2022-11-28T08:28:45.255Z,3.80
2022-11-28T08:31:42.399Z,3.90
2022-11-28T08:34:39.296Z,3.90
2022-11-28T08:37:36.142Z,3.90
2022-11-28T08:40:33.246Z,3.90
2022-11-28T08:43:30.359Z,3.90
2022-11-28T08:46:27.312Z,3.90
2022-11-28T08:49:24.234Z,3.90
2022-11-28T08:52:22.132Z,4.10
2022-11-28T08:55:22.231Z,4.10
2022-11-28T08:58:22.150Z,4.10
2022-11-28T09:01:25.106Z,4.20
2022-11-28T09:04:23.886Z,4.20
2022-11-28T09:07:20.984Z,4.20
2022-11-28T09:10:18.097Z,4.20
2022-11-28T09:13:16.005Z,4.20
2022-11-28T09:16:13.435Z,4.20
2022-11-28T09:19:10.842Z,4.30
2022-11-28T09:22:08.056Z,4.40
2022-11-28T09:25:05.476Z,4.40
2022-11-28T09:28:02.600Z,4.40
2022-11-28T09:31:04.786Z,4.40
2022-11-28T09:34:03.480Z,4.40
2022-11-28T09:37:04.649Z,4.50
2022-11-28T09:40:17.313Z,4.50
2022-11-28T09:43:41.940Z,4.50
2022-11-28T09:46:39.613Z,4.40
2022-11-28T09:49:46.667Z,4.50
2022-11-28T09:53:23.360Z,4.50
2022-11-28T09:56:22.642Z,4.50
2022-11-28T09:59:30.522Z,4.60
2022-11-28T10:02:49.880Z,4.50
2022-11-28T10:06:25.428Z,4.60
2022-11-28T10:09:45.497Z,4.70
2022-11-28T10:13:16.275Z,4.70
2022-11-28T10:16:35.203Z,4.70
2022-11-28T10:20:10.666Z,4.60
2022-11-28T10:23:43.763Z,4.70
2022-11-28T10:26:48.033Z,4.80
2022-11-28T10:30:03.003Z,4.80
2022-11-28T10:33:41.549Z,4.90
2022-11-28T10:37:16.009Z,5.00
2022-11-28T10:40:24.468Z,4.90
2022-11-28T10:43:51.462Z,4.90
2022-11-28T10:47:07.357Z,4.90
2022-11-28T10:50:33.678Z,5.00
2022-11-28T10:53:30.374Z,5.00
2022-11-28T10:56:51.394Z,4.80
2022-11-28T11:00:13.317Z,4.80
2022-11-28T11:03:15.428Z,4.70
2022-11-28T11:06:12.311Z,4.70
2022-11-28T11:09:13.361Z,4.60
2022-11-28T11:12:26.233Z,4.70
2022-11-28T11:15:29.978Z,4.80
2022-11-28T11:18:44.536Z,4.80
2022-11-28T11:21:41.382Z,4.80
2022-11-28T11:24:38.393Z,5.00
2022-11-28T11:27:37.940Z,5.00
2022-11-28T11:30:42.790Z,5.10
2022-11-28T11:33:40.167Z,5.00
2022-11-28T11:36:37.658Z,5.00
2022-11-28T11:39:45.828Z,4.90
2022-11-28T11:42:54.558Z,4.80
2022-11-28T11:46:15.810Z,4.90
2022-11-28T11:49:29.468Z,5.00
2022-11-28T11:52:27.523Z,5.10
2022-11-28T11:55:25.422Z,5.10
2022-11-28T11:58:52.145Z,5.10
2022-11-28T12:01:57.199Z,5.00
2022-11-28T12:05:21.780Z,4.90
2022-11-28T12:08:35.158Z,4.90
2022-11-28T12:11:47.104Z,5.10
2022-11-28T12:14:44.743Z,5.10
2022-11-28T12:18:16.717Z,5.10
2022-11-28T12:21:40.524Z,5.20
2022-11-28T12:24:52.105Z,5.40
2022-11-28T12:28:31.901Z,5.50
2022-11-28T12:31:55.305Z,5.50
2022-11-28T12:35:23.704Z,5.50
2022-11-28T12:38:56.092Z,5.30
2022-11-28T12:42:53.668Z,5.40
2022-11-28T12:46:16.110Z,5.20
2022-11-28T12:49:23.253Z,5.20
2022-11-28T12:52:55.771Z,5.30
2022-11-28T12:56:20.143Z,5.20
2022-11-28T12:59:19.825Z,5.40
2022-11-28T13:03:03.434Z,5.40
2022-11-28T13:06:27.301Z,5.50
2022-11-28T13:09:51.978Z,5.60
2022-11-28T13:13:01.038Z,5.30
2022-11-28T13:16:41.687Z,5.40
2022-11-28T13:19:48.621Z,5.30
2022-11-28T13:23:16.316Z,5.30
2022-11-28T13:26:46.604Z,5.10
2022-11-28T13:30:16.895Z,4.90
2022-11-28T13:34:04.208Z,4.90
2022-11-28T13:40:58.743Z,5.00
2022-11-28T13:44:05.604Z,5.00
2022-11-28T13:47:21.216Z,5.10
2022-11-28T13:50:29.563Z,5.20
2022-11-28T13:53:26.736Z,4.90
2022-11-28T13:56:27.048Z,4.80
2022-11-28T13:59:25.438Z,4.80
2022-11-28T14:02:47.914Z,5.00
2022-11-28T14:05:45.441Z,4.80
2022-11-28T14:08:46.250Z,5.00
2022-11-28T14:11:55.121Z,5.10
2022-11-28T14:15:09.851Z,5.00
2022-11-28T14:18:55.800Z,5.00
2022-11-28T14:22:16.908Z,4.90
2022-11-28T14:25:45.908Z,4.80
2022-11-28T14:28:44.670Z,4.70
2022-11-28T14:32:06.681Z,4.80
2022-11-28T14:35:11.775Z,4.90
2022-11-28T14:38:31.404Z,5.00
2022-11-28T14:41:28.384Z,5.10
2022-11-28T14:44:52.536Z,5.00
2022-11-28T14:48:30.644Z,4.70
2022-11-28T14:51:45.894Z,4.80
2022-11-28T14:54:44.025Z,4.70
2022-11-28T14:58:05.223Z,4.60
2022-11-28T15:01:13.083Z,4.50
2022-11-28T15:04:27.631Z,4.40
2022-11-28T15:07:37.926Z,4.40
2022-11-28T15:11:08.010Z,4.40
2022-11-28T15:14:23.464Z,4.30
2022-11-28T15:17:30.592Z,4.20
2022-11-28T15:20:38.954Z,4.10
2022-11-28T15:23:38.456Z,4.00
2022-11-28T15:26:35.315Z,4.10
2022-11-28T15:29:32.184Z,4.00
2022-11-28T15:32:31.600Z,4.00
2022-11-28T15:35:29.101Z,3.80
2022-11-28T15:38:28.312Z,3.90
2022-11-28T15:41:27.666Z,4.00
2022-11-28T15:44:24.793Z,3.90
2022-11-28T15:47:22.191Z,4.00
2022-11-28T15:50:27.185Z,4.00
2022-11-28T15:53:24.076Z,4.00
2022-11-28T15:56:20.991Z,4.10
2022-11-28T15:59:17.840Z,4.40
2022-11-28T16:02:34.946Z,4.40
2022-11-28T16:05:31.954Z,4.40
2022-11-28T16:08:36.765Z,4.50
2022-11-28T16:11:35.528Z,4.30
2022-11-28T16:14:36.055Z,4.30
2022-11-28T16:17:34.400Z,4.30
2022-11-28T16:20:37.155Z,4.40
2022-11-28T16:23:37.690Z,4.30
2022-11-28T16:26:37.248Z,4.30
2022-11-28T16:29:36.486Z,4.30
2022-11-28T16:32:39.299Z,4.30
2022-11-28T16:35:40.412Z,4.30
2022-11-28T16:38:38.544Z,4.30
2022-11-28T16:41:36.592Z,4.40
2022-11-28T16:44:33.715Z,4.30
2022-11-28T16:47:33.098Z,4.30
2022-11-28T16:50:29.962Z,4.40
2022-11-28T16:53:45.979Z,4.40
2022-11-28T16:56:44.497Z,4.20
2022-11-28T16:59:42.937Z,4.20
2022-11-28T17:02:39.908Z,4.20
2022-11-28T17:05:36.741Z,4.20
2022-11-28T17:08:33.595Z,4.20
2022-11-28T17:11:34.187Z,4.20
2022-11-28T17:14:31.042Z,4.20
2022-11-28T17:17:29.906Z,4.20
2022-11-28T17:20:26.754Z,4.20
2022-11-28T17:23:25.238Z,4.20
2022-11-28T17:26:22.071Z,4.10
2022-11-28T17:29:19.707Z,4.10
2022-11-28T17:32:16.622Z,4.10
2022-11-28T17:35:20.030Z,4.00
2022-11-28T17:38:17.475Z,4.00
2022-11-28T17:41:14.782Z,4.10
2022-11-28T17:44:23.331Z,4.20
2022-11-28T17:47:20.248Z,4.10
2022-11-28T17:50:17.748Z,4.10
2022-11-28T17:53:20.388Z,4.10
2022-11-28T17:56:17.367Z,4.30
2022-11-28T17:59:16.597Z,4.10
2022-11-28T18:02:13.527Z,4.20
2022-11-28T18:05:10.738Z,4.20
2022-11-28T18:08:07.748Z,4.20
2022-11-28T18:11:06.885Z,4.20
2022-11-28T18:14:03.801Z,4.20
2022-11-28T18:17:00.675Z,4.20
2022-11-28T18:19:58.051Z,4.20
2022-11-28T18:22:56.759Z,4.20
2022-11-28T18:25:53.587Z,4.30
2022-11-28T18:28:51.313Z,4.30
2022-11-28T18:31:48.217Z,4.30
2022-11-28T18:34:45.125Z,4.20
2022-11-28T18:37:41.991Z,4.20
2022-11-28T18:40:39.232Z,4.20
2022-11-28T18:43:37.150Z,4.20
2022-11-28T18:46:35.902Z,4.20
2022-11-28T18:49:32.743Z,4.30
2022-11-28T18:52:29.590Z,4.20
2022-11-28T18:55:26.480Z,4.20
2022-11-28T18:58:23.377Z,4.20
2022-11-28T19:01:25.448Z,4.20
2022-11-28T19:04:22.454Z,4.20
2022-11-28T19:07:19.339Z,4.10
2022-11-28T19:10:16.414Z,4.10
2022-11-28T19:13:13.305Z,4.10
2022-11-28T19:16:17.614Z,4.10
2022-11-28T19:19:16.639Z,4.10
2022-11-28T19:22:13.491Z,4.10
2022-11-28T19:25:10.357Z,4.10
2022-11-28T19:28:07.210Z,4.10
2022-11-28T19:31:17.203Z,4.10
2022-11-28T19:34:18.672Z,4.20
2022-11-28T19:37:15.882Z,4.20
2022-11-28T19:40:13.510Z,4.10
2022-11-28T19:43:10.372Z,4.10
2022-11-28T19:46:08.651Z,4.00
2022-11-28T19:49:07.368Z,4.10
2022-11-28T19:52:04.532Z,4.10
2022-11-28T19:55:01.467Z,4.20
2022-11-28T19:57:58.311Z,4.20
2022-11-28T20:01:02.585Z,4.20
2022-11-28T20:03:59.841Z,4.10
2022-11-28T20:06:56.663Z,4.20
2022-11-28T20:09:53.521Z,4.20
2022-11-28T20:12:50.585Z,4.20
2022-11-28T20:15:47.457Z,4.20
2022-11-28T20:18:45.042Z,4.10
2022-11-28T20:21:42.032Z,4.20
2022-11-28T20:24:38.860Z,4.20
2022-11-28T20:27:35.718Z,4.20
2022-11-28T20:30:32.542Z,4.20
2022-11-28T20:33:30.146Z,4.20
2022-11-28T20:36:29.271Z,4.20
2022-11-28T20:39:26.371Z,4.20
2022-11-28T20:42:23.791Z,4.20
2022-11-28T20:45:20.608Z,4.20
2022-11-28T20:48:17.695Z,4.20
2022-11-28T20:51:24.920Z,4.20
2022-11-28T20:54:21.806Z,4.20
2022-11-28T20:57:21.798Z,4.10
2022-11-28T21:00:24.982Z,4.10
2022-11-28T21:03:23.746Z,4.20
2022-11-28T21:06:21.754Z,4.10
2022-11-28T21:09:20.483Z,4.00
2022-11-28T21:12:20.979Z,4.10
2022-11-28T21:15:18.184Z,4.20
2022-11-28T21:18:16.437Z,4.20
2022-11-28T21:21:17.601Z,4.20
2022-11-28T21:24:14.563Z,4.20
2022-11-28T21:27:11.403Z,4.20
2022-11-28T21:30:10.097Z,4.20
2022-11-28T21:33:06.988Z,4.10
2022-11-28T21:36:06.069Z,4.10
2022-11-28T21:39:02.941Z,4.10
2022-11-28T21:42:02.212Z,4.10
2022-11-28T21:44:59.057Z,4.20
2022-11-28T21:47:55.900Z,4.10
2022-11-28T21:50:52.722Z,4.10
2022-11-28T21:53:50.200Z,4.10
2022-11-28T21:56:47.049Z,4.20
2022-11-28T21:59:44.317Z,4.30
2022-11-28T22:02:41.402Z,4.30
2022-11-28T22:05:38.271Z,4.20
2022-11-28T22:08:36.039Z,4.10
2022-11-28T22:11:32.935Z,4.10
2022-11-28T22:17:50.872Z,4.10
2022-11-28T22:20:51.637Z,4.10
2022-11-28T22:23:50.690Z,4.10
2022-11-28T22:26:47.546Z,4.20
2022-11-28T22:29:45.204Z,4.20
2022-11-28T22:32:42.050Z,4.20
2022-11-28T22:35:38.904Z,4.30
2022-11-28T22:38:35.808Z,4.30
2022-11-28T22:41:32.659Z,4.20
2022-11-28T22:44:29.528Z,4.10
2022-11-28T22:47:26.459Z,4.10
2022-11-28T22:50:23.324Z,4.20
2022-11-28T22:53:20.200Z,4.30
2022-11-28T22:56:17.063Z,4.20
2022-11-28T22:59:15.896Z,4.20
2022-11-28T23:02:12.845Z,4.20
2022-11-28T23:05:09.796Z,4.20
2022-11-28T23:08:07.610Z,4.20
2022-11-28T23:11:23.181Z,4.20
2022-11-28T23:14:20.108Z,4.20
2022-11-28T23:17:16.956Z,4.20
2022-11-28T23:20:14.677Z,4.20
2022-11-28T23:23:11.507Z,4.20
2022-11-28T23:26:18.888Z,4.30
2022-11-28T23:29:17.102Z,4.30
2022-11-28T23:32:13.971Z,4.20
2022-11-28T23:35:10.815Z,4.20
2022-11-28T23:38:07.676Z,4.20
2022-11-28T23:41:04.541Z,4.20
2022-11-28T23:44:01.752Z,4.20
2022-11-28T23:46:58.772Z,4.20
2022-11-28T23:49:55.616Z,4.10
2022-11-28T23:52:52.478Z,4.20
2022-11-28T23:55:49.324Z,4.20
2022-11-28T23:58:46.664Z,4.20
